Yarmouth Port, MA

5:53 PM EDT on June 03, 2015 (GMT -0400)
Barnstable Municipal-Boardman-Polando Field | | Change Station
CLOSE
Current Station
Airport
Location: Hyannis,
Elevation: 52 ft
Nearby Weather Stations

Elev 52 ft 41.67 °N, 70.28 °W | Updated 57 minutes ago

Clear
Clear
58 °F
Feels Like 58 °F
N
13
Wind Variable Wind from North

Today
High -- | Low -- °F
--% Chance of Precip.
Yesterday
High -- | Low -- °F
Precip. -- in
5:08 AM 8:10 PM
Full, 98% visible
Pressure 30.22 in
Visibility 10.0 miles
Clouds Clear
Dew Point 43 °F
Humidity 58%
Rainfall 0.00 in
Snow Depth Not available.
UV 4 out of 12
Pollen 7.10 out of 12
Air Quality Not available.
Flu Activity Local Activity
METAR KHYA 032056Z 36011KT 10SM CLR 14/06 A3022 RMK AO2 SLP234 T01440061 58006

More Conditions Fewer Conditions

Pressure 30.22 in
Visibility 10.0 miles
Clouds Clear
Dew Point 43 °F
Humidity 58%
Rainfall 0.00 in
Snow Depth Not available.
UV 4 out of 12
Pollen 7.10 out of 12
Air Quality Not available.
Flu Activity Local Activity
METAR KHYA 032056Z 36011KT 10SM CLR 14/06 A3022 RMK AO2 SLP234 T01440061 58006

More Conditions Fewer Conditions

10-Day Weather Forecast

×

Almanac

Astronomy

Jun. 03, 2015 Rise Set
Actual Time
Civil Twilight
Nautical Twilight
Astronomical Twilight
Moon
Length of Visible Light
Length of Day
Tomorrow will be .
, % of the Moon is Illuminated

Today's Extremes

State Highs State Lows

Community

WunderPhotos

Upload Photos

1,826,291 photos uploaded!

WunderBlogs® & News

Nearby

Air Quality

  Air Quality AQ Index Pollutant
Not available.

Snow Depth

Station Depth Elevation

Earthquake Activity

City Distance Mag. Time & Date
Minimum magnitude displayed is 2.5.

Coastal Water Temperatures

Place Temperature

Stations

Nearby Weather Stations

Station Location Temp. Windchill Dew Point Humidity Wind Precip. Elev Updated Type